Bonaire, Bonaire

7:06 PM AST on July 24, 2014 (GMT -0400)
Nikiboko (IBONAIRE5) Elev 33 ft | 12.15 °N, 68.27 °W | Change Station

Current weather conditions updated 5 minutes ago

Scattered Clouds
Scattered Clouds
82.5 °F
Feels Like 91 °F
N
2.0
Wind Variable Wind from East
Gusts 13.0 mph

Tomorrow is forecast to be Much Cooler than today.

Today
High -- | Low -- °F
--% Chance of Precip.
Yesterday
High -- | Low -- °F
Precip. -- in
6:18 AM 7:00 PM
Waning Crescent, 4% visible
Pressure 29.86 in
Visibility 6.2 miles
Clouds Scattered Clouds 1900 ft
Heat Index 91 °F
Dew Point 77 °F
Humidity 82%
Rainfall 0.00 in
Snow Depth Not available.
UV 1 out of 12
Pollen Not available.
Air Quality Not available.
Flu Activity Not available.
METAR TNCB 242200Z 05017KT 020V090 9999 SCT019 29/24 Q1011 NOSIG

More Conditions Fewer Conditions

Pressure 29.86 in
Visibility 6.2 miles
Clouds Scattered Clouds 1900 ft
Heat Index 91 °F
Dew Point 77 °F
Humidity 82%
Rainfall 0.00 in
Snow Depth Not available.
UV 1 out of 12
Pollen Not available.
Air Quality Not available.
Flu Activity Not available.
METAR TNCB 242200Z 05017KT 020V090 9999 SCT019 29/24 Q1011 NOSIG

More Conditions Fewer Conditions

10-Day Weather Forecast

Almanac

Astronomy

Jul. 24, 2014 Rise Set
Actual Time 6:18 AM AST 7:00 PM AST
Civil Twilight 5:55 AM AST 7:23 PM AST
Nautical Twilight 5:28 AM AST 7:50 PM AST
Astronomical Twilight 5:01 AM AST 8:17 PM AST
Moon 4:20 AM AST 5:17 PM AST
Length of Visible Light 13h 28m
Length of Day
12h 42m
Tomorrow will be 0m 25s shorter.
Waning Crescent, 4% of the Moon is Illuminated
Today
Waning Crescent
Jul 26
New
Aug 3
First Quarter
Aug 10
Full
Aug 17
Last Quarter

Today's Extremes

Country Highs Country Lows

Community

WunderPhotos

Upload Photos

1,737,158 photos uploaded!

Nearby

Snow Depth

Not available.

Earthquake Activity

City Distance Mag. Time & Date
No recent earthquake activity has been reported nearby.
Minimum magnitude displayed is 2.5.

Coastal Water Temperatures

Place Temperature
No Stations Reporting

Nearby Weather Stations

Station Location Temp. Heat Index Dew Point Humidity Wind Precip. Elev Updated Type
Nikiboko, Bonaire 82.5 °F 91 °F 77 °F 82% East  at  2.0 mph 0.00 in / hr 33 ft 7:00 PM AST Normal
Belnem - Sabal Palm area, Kralendijk 82.0 °F 87 °F 73 °F 74% NE  at  6.2 mph 0.00 in / hr 19 ft 7:06 PM AST Rapid Fire

Show More Stations Show Fewer Stations